Time;durP1;ratioP1;P1;durP2;ratioP2;P2;SDS_P1;SDS_P2;PMS_P1;PMS_P2;Temp;Humidity;BMP_temperature;BMP_pressure;BME280_temperature;BME280_humidity;BME280_pressure;Samples;Min_cycle;Max_cycle;Signal;HPM_P1;HPM_P2
2022/04/02 00:00:41;;;;;;;8.02;1.70;;;;;;;;;;4956927;28;20470;-35
2022/04/02 00:03:07;;;;;;;3.25;2.03;;;;;;;;;;4956940;28;20098;-35
2022/04/02 00:05:32;;;;;;;5.70;2.33;;;;;;;;;;4956849;29;20473;-35
2022/04/02 00:07:57;;;;;;;6.57;2.70;;;;;;;;;;4956778;28;20016;-36
2022/04/02 00:10:23;;;;;;;6.65;3.05;;;;;;;;;;4957031;28;20086;-35
2022/04/02 00:12:49;;;;;;;7.60;3.22;;;;;;;;;;4956941;28;20081;-35
2022/04/02 00:15:14;;;;;;;6.43;2.83;;;;;;;;;;4957005;28;20054;-35
2022/04/02 00:17:40;;;;;;;5.38;2.42;;;;;;;;;;4956848;28;20457;-35
2022/04/02 00:20:06;;;;;;;6.03;3.10;;;;;;;;;;4956635;28;20035;-35
2022/04/02 00:22:31;;;;;;;8.13;2.28;;;;;;;;;;4956869;28;20015;-35
2022/04/02 00:24:57;;;;;;;5.78;3.17;;;;;;;;;;4956652;28;20043;-35
2022/04/02 00:27:22;;;;;;;5.05;2.67;;;;;;;;;;4956591;28;20019;-35
2022/04/02 00:29:48;;;;;;;4.82;2.78;;;;;;;;;;4956619;28;20027;-38
2022/04/02 00:32:14;;;;;;;4.18;2.90;;;;;;;;;;4956680;28;20050;-35
2022/04/02 00:34:40;;;;;;;11.55;3.83;;;;;;;;;;4956296;28;20051;-35
2022/04/02 00:37:05;;;;;;;6.55;3.40;;;;;;;;;;4955042;28;20042;-35
2022/04/02 00:39:30;;;;;;;4.63;3.08;;;;;;;;;;4971125;28;20037;-35
2022/04/02 00:41:56;;;;;;;6.05;3.42;;;;;;;;;;4956236;28;20449;-35
2022/04/02 00:44:24;;;;;;;6.95;3.60;;;;;;;;;;4956492;28;20031;-35
2022/04/02 00:46:49;;;;;;;5.40;3.08;;;;;;;;;;4956279;28;20090;-35
2022/04/02 00:49:15;;;;;;;4.72;2.95;;;;;;;;;;4970862;28;20031;-35
2022/04/02 00:51:42;;;;;;;5.13;2.95;;;;;;;;;;4956072;28;20019;-35
2022/04/02 00:54:09;;;;;;;10.25;3.50;;;;;;;;;;4970874;28;20031;-35
2022/04/02 00:56:36;;;;;;;5.05;3.42;;;;;;;;;;4954693;28;20106;-35
2022/04/02 00:59:01;;;;;;;6.05;2.95;;;;;;;;;;4955788;28;20030;-35
2022/04/02 01:01:27;;;;;;;5.05;2.95;;;;;;;;;;4970770;28;20382;-35
2022/04/02 01:03:52;;;;;;;9.13;3.25;;;;;;;;;;4955620;28;20027;-35
2022/04/02 01:06:27;;;;;;;6.18;2.85;;;;;;;;;;4954433;28;20560;-35
2022/04/02 01:08:54;;;;;;;3.35;1.70;;;;;;;;;;4970432;28;20039;-34
2022/04/02 01:11:19;;;;;;;5.40;2.25;;;;;;;;;;4955760;28;20027;-35
2022/04/02 01:13:50;;;;;;;1.55;1.38;;;;;;;;;;4970438;28;20051;-35
2022/04/02 01:16:18;;;;;;;8.50;2.88;;;;;;;;;;4954330;28;20043;-35
2022/04/02 01:18:45;;;;;;;4.35;1.40;;;;;;;;;;4970276;28;20039;-35
2022/04/02 01:21:16;;;;;;;3.38;2.10;;;;;;;;;;4954217;28;20374;-35
2022/04/02 01:23:46;;;;;;;6.88;1.85;;;;;;;;;;4970220;28;20035;-35
2022/04/02 01:26:17;;;;;;;4.88;1.35;;;;;;;;;;4954175;28;20058;-34
2022/04/02 01:28:54;;;;;;;4.68;1.67;;;;;;;;;;4970120;28;20031;-35
2022/04/02 01:31:25;;;;;;;5.47;2.13;;;;;;;;;;4970276;28;20042;-35
2022/04/02 01:33:51;;;;;;;4.63;1.70;;;;;;;;;;4955239;28;20118;-35
2022/04/02 01:36:19;;;;;;;3.30;2.00;;;;;;;;;;4970105;28;20042;-35
2022/04/02 01:38:54;;;;;;;2.35;1.60;;;;;;;;;;4953911;29;20047;-35
2022/04/02 01:41:24;;;;;;;3.03;1.88;;;;;;;;;;4969926;28;20104;-36
2022/04/02 01:43:49;;;;;;;5.43;2.25;;;;;;;;;;4969709;28;20043;-35
2022/04/02 01:46:15;;;;;;;3.75;2.50;;;;;;;;;;4937853;28;20125;-35
2022/04/02 01:48:42;;;;;;;4.65;2.20;;;;;;;;;;4953587;29;20023;-35
2022/04/02 01:51:08;;;;;;;4.63;2.33;;;;;;;;;;4969896;28;20057;-35
2022/04/02 01:53:34;;;;;;;2.95;2.03;;;;;;;;;;4953736;28;20465;-35
2022/04/02 01:56:04;;;;;;;3.58;2.33;;;;;;;;;;4969584;28;20042;-35
2022/04/02 01:58:33;;;;;;;3.30;1.80;;;;;;;;;;4969675;28;20114;-35
2022/04/02 02:01:00;;;;;;;6.90;2.97;;;;;;;;;;4969615;28;20552;-35
2022/04/02 02:03:27;;;;;;;2.63;1.98;;;;;;;;;;4953457;29;20046;-35
2022/04/02 02:05:53;;;;;;;5.70;2.67;;;;;;;;;;4954644;28;20036;-35
2022/04/02 02:08:19;;;;;;;3.30;2.53;;;;;;;;;;4953399;28;20047;-35
2022/04/02 02:11:01;;;;;;;5.47;2.55;;;;;;;;;;4969398;28;20146;-35
2022/04/02 02:13:47;;;;;;;4.60;2.70;;;;;;;;;;4969415;28;20541;-35
2022/04/02 02:16:18;;;;;;;8.23;3.05;;;;;;;;;;4968681;28;20035;-34
2022/04/02 02:18:45;;;;;;;3.00;2.03;;;;;;;;;;4953064;28;20482;-35
2022/04/02 02:21:11;;;;;;;3.47;2.05;;;;;;;;;;4953238;28;20082;-35
2022/04/02 02:23:36;;;;;;;2.22;1.80;;;;;;;;;;4954363;29;20490;-35
2022/04/02 02:26:02;;;;;;;4.00;2.25;;;;;;;;;;4952945;28;20242;-35
2022/04/02 02:28:27;;;;;;;7.47;2.00;;;;;;;;;;4969120;28;20089;-35
2022/04/02 02:30:55;;;;;;;3.90;2.25;;;;;;;;;;4952929;28;20377;-35
2022/04/02 02:36:05;;;;;;;5.07;1.33;;;;;;;;;;4968975;28;20481;-35
2022/04/02 02:38:54;;;;;;;7.63;1.27;;;;;;;;;;4950963;28;20058;-35
2022/04/02 02:41:31;;;;;;;2.55;1.08;;;;;;;;;;4968993;28;20441;-35
2022/04/02 02:44:00;;;;;;;5.22;1.25;;;;;;;;;;4968764;28;20045;-35
2022/04/02 02:46:34;;;;;;;0.82;0.73;;;;;;;;;;4952577;28;20055;-35
2022/04/02 02:49:09;;;;;;;4.85;1.83;;;;;;;;;;4968785;28;20042;-35
2022/04/02 02:51:36;;;;;;;2.70;2.17;;;;;;;;;;4968719;28;20031;-35
2022/04/02 02:54:03;;;;;;;0.75;0.60;;;;;;;;;;4953991;28;20482;-35
2022/04/02 02:56:28;;;;;;;0.60;0.60;;;;;;;;;;4968692;28;20042;-35
2022/04/02 02:58:54;;;;;;;0.40;0.40;;;;;;;;;;4952430;29;20102;-35
2022/04/02 03:01:21;;;;;;;0.70;0.40;;;;;;;;;;4968612;28;20039;-35
2022/04/02 03:03:50;;;;;;;0.43;0.28;;;;;;;;;;4952414;28;20026;-35
2022/04/02 03:06:17;;;;;;;2.92;0.50;;;;;;;;;;4968404;28;20113;-35
2022/04/02 03:08:44;;;;;;;2.50;0.40;;;;;;;;;;4952319;28;20085;-35
2022/04/02 03:11:12;;;;;;;1.05;0.40;;;;;;;;;;4953697;28;20085;-36
2022/04/02 03:13:39;;;;;;;0.30;0.30;;;;;;;;;;4952381;28;20054;-35
2022/04/02 03:16:10;;;;;;;0.38;0.38;;;;;;;;;;4953855;28;20042;-35
2022/04/02 03:18:58;;;;;;;0.65;0.40;;;;;;;;;;4952185;28;20117;-35
2022/04/02 03:21:25;;;;;;;0.68;0.40;;;;;;;;;;4968192;28;20173;-35
2022/04/02 03:23:51;;;;;;;11.05;1.85;;;;;;;;;;4953643;28;20019;-35
2022/04/02 03:26:19;;;;;;;0.30;0.28;;;;;;;;;;4968204;28;20040;-35
2022/04/02 03:28:46;;;;;;;0.22;0.22;;;;;;;;;;4953207;28;20054;-35
2022/04/02 03:31:12;;;;;;;0.40;0.30;;;;;;;;;;4968226;28;20027;-35
2022/04/02 03:33:40;;;;;;;1.65;0.47;;;;;;;;;;4952090;29;20022;-35
2022/04/02 03:36:10;;;;;;;1.17;0.57;;;;;;;;;;4968082;28;20422;-35
2022/04/02 03:38:39;;;;;;;1.95;0.93;;;;;;;;;;4951987;28;20485;-35
2022/04/02 03:41:12;;;;;;;0.22;0.17;;;;;;;;;;4968045;28;20117;-35
2022/04/02 03:43:37;;;;;;;0.38;0.38;;;;;;;;;;4953074;28;20051;-35
2022/04/02 03:48:47;;;;;;;0.20;0.20;;;;;;;;;;4967895;28;20042;-35
2022/04/02 03:51:13;;;;;;;0.30;0.30;;;;;;;;;;4953263;28;20027;-35
2022/04/02 03:53:38;;;;;;;0.43;0.30;;;;;;;;;;4968053;28;20026;-35
2022/04/02 03:56:04;;;;;;;0.20;0.20;;;;;;;;;;4951801;28;20513;-35
2022/04/02 03:58:46;;;;;;;0.53;0.40;;;;;;;;;;4967899;28;20453;-35
2022/04/02 04:01:14;;;;;;;0.43;0.43;;;;;;;;;;4967915;28;20280;-35
2022/04/02 04:03:40;;;;;;;0.65;0.30;;;;;;;;;;4951836;28;20545;-35
2022/04/02 04:06:07;;;;;;;1.35;0.43;;;;;;;;;;4967625;28;20552;-35
2022/04/02 04:08:35;;;;;;;0.73;0.32;;;;;;;;;;4951776;29;20035;-34
2022/04/02 04:11:01;;;;;;;1.33;0.40;;;;;;;;;;4967740;28;20146;-35
2022/04/02 04:13:27;;;;;;;0.30;0.30;;;;;;;;;;4951768;28;20118;-36
2022/04/02 04:15:56;;;;;;;0.40;0.20;;;;;;;;;;4967736;28;20027;-35
2022/04/02 04:18:22;;;;;;;4.03;0.68;;;;;;;;;;4951597;28;20118;-36
2022/04/02 04:20:49;;;;;;;0.28;0.28;;;;;;;;;;4967675;28;20031;-34
2022/04/02 04:23:22;;;;;;;0.20;0.20;;;;;;;;;;4966940;28;20039;-35
2022/04/02 04:25:48;;;;;;;1.55;0.32;;;;;;;;;;4967500;28;20039;-35
2022/04/02 04:28:14;;;;;;;0.52;0.45;;;;;;;;;;4951577;28;20662;-35
2022/04/02 04:30:42;;;;;;;3.65;0.43;;;;;;;;;;4967635;28;20418;-36
2022/04/02 04:33:07;;;;;;;2.83;0.20;;;;;;;;;;4951439;28;20020;-35
2022/04/02 04:35:34;;;;;;;0.20;0.20;;;;;;;;;;4967626;28;20039;-35
2022/04/02 04:37:59;;;;;;;0.47;0.47;;;;;;;;;;4952725;28;20039;-35
2022/04/02 04:40:27;;;;;;;0.25;0.20;;;;;;;;;;4970128;28;20038;-35
2022/04/02 04:42:54;;;;;;;0.75;0.50;;;;;;;;;;4954773;28;20045;-35
2022/04/02 04:45:28;;;;;;;0.40;0.38;;;;;;;;;;4970958;28;20112;-35
2022/04/02 04:47:53;;;;;;;1.00;0.40;;;;;;;;;;4956009;28;20035;-35
2022/04/02 04:50:22;;;;;;;0.60;0.40;;;;;;;;;;4954890;29;20019;-35
2022/04/02 04:52:52;;;;;;;0.80;0.30;;;;;;;;;;4970879;28;20150;-35
2022/04/02 04:55:18;;;;;;;0.40;0.30;;;;;;;;;;4956041;28;20508;-35
2022/04/02 04:57:44;;;;;;;0.65;0.38;;;;;;;;;;4956042;28;20054;-35
2022/04/02 05:00:17;;;;;;;0.22;0.22;;;;;;;;;;4955019;28;20059;-35
2022/04/02 05:02:47;;;;;;;2.95;0.65;;;;;;;;;;4970675;28;20066;-35
2022/04/02 05:05:18;;;;;;;0.88;0.88;;;;;;;;;;4970595;28;20039;-35
2022/04/02 05:07:46;;;;;;;0.25;0.20;;;;;;;;;;4970459;28;20042;-35
2022/04/02 05:10:13;;;;;;;0.32;0.30;;;;;;;;;;4970686;28;20027;-35
2022/04/02 05:12:39;;;;;;;0.25;0.25;;;;;;;;;;4970588;28;20122;-36
2022/04/02 05:15:08;;;;;;;0.93;0.43;;;;;;;;;;4954324;28;20023;-35
2022/04/02 05:17:35;;;;;;;0.25;0.22;;;;;;;;;;4970434;28;20478;-35
2022/04/02 05:20:07;;;;;;;0.20;0.20;;;;;;;;;;4954254;29;20493;-35
2022/04/02 05:22:35;;;;;;;0.30;0.20;;;;;;;;;;4970347;28;20055;-35
2022/04/02 05:25:01;;;;;;;0.20;0.20;;;;;;;;;;4970195;28;20077;-35
2022/04/02 05:27:28;;;;;;;0.22;0.20;;;;;;;;;;4970287;28;20083;-35
2022/04/02 05:29:54;;;;;;;0.35;0.30;;;;;;;;;;4954123;28;20446;-35
2022/04/02 05:32:19;;;;;;;0.20;0.17;;;;;;;;;;4954234;28;20035;-34
2022/04/02 05:34:45;;;;;;;0.10;0.10;;;;;;;;;;4955343;28;20378;-35
2022/04/02 05:37:10;;;;;;;0.30;0.20;;;;;;;;;;4955524;28;20024;-35
2022/04/02 05:39:36;;;;;;;0.10;0.10;;;;;;;;;;4953798;29;20051;-35
2022/04/02 05:42:02;;;;;;;0.10;0.10;;;;;;;;;;4955160;28;20043;-35
2022/04/02 05:44:30;;;;;;;0.20;0.20;;;;;;;;;;4970014;28;20030;-36
2022/04/02 05:46:56;;;;;;;0.20;0.20;;;;;;;;;;4954998;28;20122;-35
2022/04/02 05:49:21;;;;;;;0.13;0.13;;;;;;;;;;4954615;28;20098;-35
2022/04/02 05:51:47;;;;;;;0.20;0.20;;;;;;;;;;4953926;28;20043;-35
2022/04/02 05:54:12;;;;;;;0.10;0.10;;;;;;;;;;4955296;28;20533;-35
2022/04/02 05:56:38;;;;;;;0.73;0.52;;;;;;;;;;4954866;28;20066;-35
2022/04/02 05:59:05;;;;;;;0.10;0.10;;;;;;;;;;4954721;28;20027;-34
2022/04/02 06:01:31;;;;;;;0.20;0.20;;;;;;;;;;4954972;28;20031;-35
2022/04/02 06:03:56;;;;;;;0.10;0.10;;;;;;;;;;4954797;28;20150;-35
2022/04/02 06:06:22;;;;;;;0.10;0.10;;;;;;;;;;4954683;28;20500;-35
2022/04/02 06:08:48;;;;;;;0.20;0.20;;;;;;;;;;4954601;28;20366;-35
2022/04/02 06:11:13;;;;;;;0.55;0.20;;;;;;;;;;4954943;28;20109;-35
2022/04/02 06:13:38;;;;;;;0.10;0.10;;;;;;;;;;4969498;28;20454;-35
2022/04/02 06:16:06;;;;;;;0.17;0.17;;;;;;;;;;4954529;28;20028;-35
2022/04/02 06:18:31;;;;;;;0.25;0.25;;;;;;;;;;4954484;28;20024;-35
2022/04/02 06:20:57;;;;;;;0.40;0.22;;;;;;;;;;4954410;28;20110;-35
2022/04/02 06:23:25;;;;;;;0.10;0.10;;;;;;;;;;4969592;28;20023;-35
2022/04/02 06:25:51;;;;;;;0.10;0.10;;;;;;;;;;4954502;28;20046;-35
2022/04/02 06:28:17;;;;;;;5.30;0.45;;;;;;;;;;4954111;28;20019;-34
2022/04/02 06:30:42;;;;;;;0.10;0.10;;;;;;;;;;4954615;28;20386;-35
2022/04/02 06:33:08;;;;;;;0.20;0.10;;;;;;;;;;4954121;28;20022;-35
2022/04/02 06:35:34;;;;;;;1.45;0.30;;;;;;;;;;4969077;28;20389;-35
2022/04/02 06:38:00;;;;;;;0.10;0.10;;;;;;;;;;4952827;28;20055;-34
2022/04/02 06:40:26;;;;;;;0.10;0.10;;;;;;;;;;4954178;28;20062;-35
2022/04/02 06:42:51;;;;;;;2.88;0.20;;;;;;;;;;4952541;28;20106;-35
2022/04/02 06:45:36;;;;;;;0.10;0.10;;;;;;;;;;4968845;28;20505;-35
2022/04/02 06:48:02;;;;;;;0.40;0.20;;;;;;;;;;4954128;28;20031;-35
2022/04/02 06:50:28;;;;;;;0.10;0.10;;;;;;;;;;4953997;28;20038;-35
2022/04/02 06:52:54;;;;;;;0.10;0.10;;;;;;;;;;4954121;28;20031;-36
2022/04/02 06:55:19;;;;;;;0.20;0.20;;;;;;;;;;4954145;28;20371;-34
2022/04/02 06:57:51;;;;;;;0.20;0.20;;;;;;;;;;4953711;29;20102;-35
2022/04/02 07:00:17;;;;;;;0.32;0.20;;;;;;;;;;4954168;28;20035;-35
2022/04/02 07:02:43;;;;;;;0.15;0.15;;;;;;;;;;4953552;28;20015;-35
2022/04/02 07:05:08;;;;;;;0.20;0.20;;;;;;;;;;4968364;28;20066;-35
2022/04/02 07:07:34;;;;;;;0.17;0.17;;;;;;;;;;4953694;28;20102;-35
2022/04/02 07:10:00;;;;;;;1.05;0.30;;;;;;;;;;4968347;28;20446;-34
2022/04/02 07:12:25;;;;;;;0.28;0.20;;;;;;;;;;4953556;28;20111;-35
2022/04/02 07:14:52;;;;;;;0.13;0.13;;;;;;;;;;4953820;28;20028;-35
2022/04/02 07:17:17;;;;;;;0.25;0.22;;;;;;;;;;4953753;28;20370;-35
2022/04/02 07:19:45;;;;;;;1.27;0.43;;;;;;;;;;4953560;28;20186;-35
2022/04/02 07:22:11;;;;;;;1.17;0.13;;;;;;;;;;4953414;28;20027;-35
2022/04/02 07:24:39;;;;;;;0.88;0.20;;;;;;;;;;4953328;28;20114;-35
2022/04/02 07:27:05;;;;;;;0.20;0.20;;;;;;;;;;4953537;28;20409;-35
2022/04/02 07:29:31;;;;;;;0.30;0.30;;;;;;;;;;4953641;28;20454;-35
2022/04/02 07:31:57;;;;;;;0.55;0.30;;;;;;;;;;4968194;28;20347;-34
2022/04/02 07:34:24;;;;;;;0.10;0.10;;;;;;;;;;4968241;28;20035;-35
2022/04/02 07:37:08;;;;;;;0.65;0.30;;;;;;;;;;4953274;28;20020;-35
2022/04/02 07:40:06;;;;;;;0.65;0.40;;;;;;;;;;4953353;28;20043;-35
2022/04/02 07:42:33;;;;;;;0.30;0.20;;;;;;;;;;4951830;28;20402;-35
2022/04/02 07:45:03;;;;;;;1.35;0.30;;;;;;;;;;4951796;28;20508;-35
2022/04/02 07:47:30;;;;;;;0.10;0.10;;;;;;;;;;4953254;28;20047;-34
2022/04/02 07:49:59;;;;;;;0.43;0.43;;;;;;;;;;4953319;28;20373;-35
2022/04/02 07:52:24;;;;;;;0.10;0.10;;;;;;;;;;4953205;28;20222;-35
2022/04/02 07:54:54;;;;;;;0.13;0.13;;;;;;;;;;4953156;28;20011;-35
2022/04/02 07:57:22;;;;;;;0.45;0.25;;;;;;;;;;4953448;28;20038;-35
2022/04/02 08:00:00;;;;;;;0.22;0.20;;;;;;;;;;4967820;28;20031;-34
2022/04/02 08:02:39;;;;;;;0.63;0.30;;;;;;;;;;4953446;28;20035;-35
2022/04/02 08:05:07;;;;;;;0.30;0.30;;;;;;;;;;4953216;28;20031;-34
2022/04/02 08:07:34;;;;;;;0.38;0.38;;;;;;;;;;4953063;28;20038;-35
2022/04/02 08:10:01;;;;;;;0.30;0.30;;;;;;;;;;4952982;28;20034;-34
2022/04/02 08:12:27;;;;;;;1.02;0.93;;;;;;;;;;4953030;28;20023;-35
2022/04/02 08:14:54;;;;;;;0.80;0.40;;;;;;;;;;4954775;28;20035;-34
2022/04/02 08:17:21;;;;;;;2.80;0.93;;;;;;;;;;4956763;28;20026;-34
2022/04/02 08:19:49;;;;;;;1.70;0.60;;;;;;;;;;4956772;28;20059;-35
2022/04/02 08:22:16;;;;;;;1.45;0.30;;;;;;;;;;4956705;28;20067;-34
2022/04/02 08:24:42;;;;;;;1.25;0.60;;;;;;;;;;4956664;28;20443;-34
2022/04/02 08:27:22;;;;;;;0.63;0.38;;;;;;;;;;4956327;29;20039;-34
2022/04/02 08:29:54;;;;;;;0.30;0.30;;;;;;;;;;4956848;28;20098;-35
2022/04/02 08:32:35;;;;;;;2.15;1.25;;;;;;;;;;4956495;28;20051;-34
2022/04/02 08:35:04;;;;;;;0.90;0.52;;;;;;;;;;4956359;28;20034;-34
2022/04/02 08:37:48;;;;;;;0.73;0.60;;;;;;;;;;4956406;28;20030;-35
2022/04/02 08:40:22;;;;;;;3.55;0.38;;;;;;;;;;4956324;28;20059;-34
2022/04/02 08:42:54;;;;;;;1.65;0.40;;;;;;;;;;4955983;28;20055;-35
2022/04/02 08:45:26;;;;;;;0.95;0.40;;;;;;;;;;4956477;28;20533;-34
2022/04/02 08:47:55;;;;;;;0.47;0.40;;;;;;;;;;4956046;28;20042;-35
2022/04/02 08:50:27;;;;;;;0.45;0.30;;;;;;;;;;4971077;28;20034;-35
2022/04/02 08:52:55;;;;;;;1.23;0.38;;;;;;;;;;4956332;28;20038;-35
2022/04/02 08:55:44;;;;;;;0.50;0.50;;;;;;;;;;4956099;28;20026;-35
2022/04/02 08:58:30;;;;;;;1.25;0.40;;;;;;;;;;4955934;28;20382;-35
2022/04/02 09:00:55;;;;;;;0.52;0.40;;;;;;;;;;4955240;28;20035;-35
2022/04/02 09:03:35;;;;;;;0.63;0.50;;;;;;;;;;4955825;28;20090;-34
2022/04/02 09:06:20;;;;;;;0.75;0.40;;;;;;;;;;4955775;28;20066;-35
2022/04/02 09:09:05;;;;;;;1.70;0.50;;;;;;;;;;4956108;28;20086;-34
2022/04/02 09:11:40;;;;;;;0.40;0.30;;;;;;;;;;4955793;28;20513;-35
2022/04/02 09:14:16;;;;;;;0.95;0.50;;;;;;;;;;4955758;28;20085;-34
2022/04/02 09:16:54;;;;;;;0.70;0.45;;;;;;;;;;4955613;28;20027;-34
2022/04/02 09:19:38;;;;;;;0.75;0.40;;;;;;;;;;4955657;28;20085;-35
2022/04/02 09:22:05;;;;;;;3.40;0.75;;;;;;;;;;4955802;28;20035;-35
2022/04/02 09:24:37;;;;;;;0.55;0.40;;;;;;;;;;4955504;28;20019;-35
2022/04/02 09:27:21;;;;;;;0.40;0.40;;;;;;;;;;4955277;28;20047;-35
2022/04/02 09:30:03;;;;;;;1.58;0.75;;;;;;;;;;4955495;28;20466;-35
2022/04/02 09:32:37;;;;;;;0.68;0.60;;;;;;;;;;4955346;28;20082;-35
2022/04/02 09:35:03;;;;;;;1.42;0.50;;;;;;;;;;4955349;28;20043;-35
2022/04/02 09:37:48;;;;;;;0.60;0.40;;;;;;;;;;4955361;29;20078;-35
2022/04/02 09:40:17;;;;;;;2.00;0.82;;;;;;;;;;4955290;28;20086;-35
2022/04/02 09:42:44;;;;;;;1.42;1.20;;;;;;;;;;4955235;28;20053;-35
2022/04/02 09:45:09;;;;;;;0.30;0.30;;;;;;;;;;4969949;28;20065;-35
2022/04/02 09:47:50;;;;;;;1.30;0.40;;;;;;;;;;4955374;28;20047;-35
2022/04/02 09:50:16;;;;;;;0.40;0.40;;;;;;;;;;4955386;28;20039;-35
2022/04/02 09:53:04;;;;;;;0.38;0.38;;;;;;;;;;4955072;28;20386;-35
2022/04/02 09:55:36;;;;;;;0.50;0.50;;;;;;;;;;4954518;28;20098;-35
2022/04/02 09:58:20;;;;;;;1.38;0.22;;;;;;;;;;4954860;28;20489;-35
2022/04/02 10:00:58;;;;;;;0.30;0.25;;;;;;;;;;4955126;28;20031;-35
2022/04/02 10:03:30;;;;;;;0.10;0.10;;;;;;;;;;4954877;28;20393;-35
2022/04/02 10:06:04;;;;;;;0.93;0.43;;;;;;;;;;4954893;28;20363;-35
2022/04/02 10:08:47;;;;;;;0.32;0.30;;;;;;;;;;4954719;28;20028;-35
2022/04/02 10:11:15;;;;;;;0.40;0.40;;;;;;;;;;4954730;28;20030;-35
2022/04/02 10:13:41;;;;;;;0.50;0.50;;;;;;;;;;4954643;28;20023;-35
2022/04/02 10:16:06;;;;;;;0.55;0.55;;;;;;;;;;4954528;28;20035;-35
2022/04/02 10:18:35;;;;;;;1.10;0.50;;;;;;;;;;4954532;28;20050;-35
2022/04/02 10:21:03;;;;;;;0.65;0.63;;;;;;;;;;4969249;28;20127;-35
2022/04/02 10:23:29;;;;;;;1.80;0.95;;;;;;;;;;4954509;28;20488;-34
2022/04/02 10:25:55;;;;;;;0.75;0.60;;;;;;;;;;4954271;28;20133;-35
2022/04/02 10:28:27;;;;;;;0.65;0.65;;;;;;;;;;4954336;28;20224;-35
2022/04/02 10:30:55;;;;;;;0.77;0.50;;;;;;;;;;4954295;28;20561;-35
2022/04/02 10:33:26;;;;;;;0.65;0.47;;;;;;;;;;4954317;28;20039;-35
2022/04/02 10:35:52;;;;;;;2.72;0.57;;;;;;;;;;4954089;28;20118;-35
2022/04/02 10:38:38;;;;;;;0.32;0.32;;;;;;;;;;4953976;28;20031;-35
2022/04/02 10:41:24;;;;;;;0.38;0.38;;;;;;;;;;4954103;28;20035;-34
2022/04/02 10:44:06;;;;;;;0.60;0.47;;;;;;;;;;4953614;28;20110;-35
2022/04/02 10:46:32;;;;;;;0.50;0.50;;;;;;;;;;4953931;28;20043;-35
2022/04/02 10:49:00;;;;;;;1.17;0.40;;;;;;;;;;4968812;28;20142;-35
2022/04/02 10:51:26;;;;;;;0.30;0.30;;;;;;;;;;4954008;28;20035;-35
2022/04/02 10:53:58;;;;;;;0.30;0.30;;;;;;;;;;4953870;28;20082;-35
2022/04/02 10:56:27;;;;;;;0.50;0.47;;;;;;;;;;4953938;28;20099;-35
2022/04/02 10:58:54;;;;;;;0.80;0.52;;;;;;;;;;4952534;28;20454;-35
2022/04/02 11:01:21;;;;;;;1.00;0.70;;;;;;;;;;4953884;28;20033;-35
2022/04/02 11:03:53;;;;;;;1.08;0.63;;;;;;;;;;4953732;28;20382;-35
2022/04/02 11:06:38;;;;;;;1.90;1.00;;;;;;;;;;4953654;28;20078;-35
2022/04/02 11:09:23;;;;;;;0.85;0.55;;;;;;;;;;4953685;28;20066;-34
2022/04/02 11:11:48;;;;;;;0.57;0.50;;;;;;;;;;4953663;28;20038;-35
2022/04/02 11:14:20;;;;;;;0.80;0.80;;;;;;;;;;4953627;28;20026;-34
2022/04/02 11:16:46;;;;;;;0.40;0.40;;;;;;;;;;4953000;28;20031;-35
2022/04/02 11:22:06;;;;;;;0.85;0.30;;;;;;;;;;4953555;28;20501;-35
2022/04/02 11:24:34;;;;;;;0.40;0.40;;;;;;;;;;4953524;28;20062;-35
2022/04/02 11:27:01;;;;;;;0.28;0.28;;;;;;;;;;4953277;28;20134;-35
2022/04/02 11:29:30;;;;;;;0.30;0.30;;;;;;;;;;4953851;28;20438;-35
2022/04/02 11:31:59;;;;;;;0.63;0.60;;;;;;;;;;4953336;28;20466;-35
2022/04/02 11:34:28;;;;;;;0.75;0.63;;;;;;;;;;4953404;28;20038;-35
2022/04/02 11:36:59;;;;;;;0.30;0.30;;;;;;;;;;4953316;28;20050;-35
2022/04/02 11:39:33;;;;;;;1.08;0.57;;;;;;;;;;4953332;28;20027;-35
2022/04/02 11:42:01;;;;;;;0.50;0.40;;;;;;;;;;4952950;28;20142;-35
2022/04/02 11:44:37;;;;;;;0.55;0.47;;;;;;;;;;4953387;28;20106;-35
2022/04/02 11:47:07;;;;;;;0.52;0.40;;;;;;;;;;4953047;28;20067;-34
2022/04/02 11:49:36;;;;;;;0.50;0.50;;;;;;;;;;4954592;28;20038;-35
2022/04/02 11:52:08;;;;;;;0.93;0.40;;;;;;;;;;4957223;28;20038;-35
2022/04/02 11:54:42;;;;;;;0.40;0.40;;;;;;;;;;4957178;28;20461;-39
2022/04/02 11:57:11;;;;;;;0.55;0.43;;;;;;;;;;4956984;28;20031;-35
2022/04/02 11:59:37;;;;;;;2.13;1.25;;;;;;;;;;4957143;28;20031;-35
2022/04/02 12:02:04;;;;;;;1.27;0.60;;;;;;;;;;4956940;28;20591;-35
2022/04/02 12:04:29;;;;;;;1.10;0.68;;;;;;;;;;4957071;28;20066;-35
2022/04/02 12:07:08;;;;;;;0.40;0.40;;;;;;;;;;4956762;28;20438;-35
2022/04/02 12:09:34;;;;;;;0.75;0.55;;;;;;;;;;4957011;28;20035;-35
2022/04/02 12:12:03;;;;;;;0.40;0.40;;;;;;;;;;4956827;28;20023;-35
2022/04/02 12:14:31;;;;;;;0.68;0.50;;;;;;;;;;4956796;28;20106;-35
2022/04/02 12:17:10;;;;;;;0.68;0.60;;;;;;;;;;4955644;29;20047;-35
2022/04/02 12:19:38;;;;;;;0.65;0.30;;;;;;;;;;4956756;28;20640;-35
2022/04/02 12:22:15;;;;;;;0.20;0.20;;;;;;;;;;4956821;28;20019;-34
2022/04/02 12:24:41;;;;;;;0.35;0.32;;;;;;;;;;4956670;28;20062;-35
2022/04/02 12:27:07;;;;;;;1.40;0.77;;;;;;;;;;4956660;28;20049;-34
2022/04/02 12:29:33;;;;;;;0.57;0.40;;;;;;;;;;4956474;28;20061;-35
2022/04/02 12:32:00;;;;;;;0.40;0.40;;;;;;;;;;4956778;28;20051;-35
2022/04/02 12:34:26;;;;;;;0.32;0.30;;;;;;;;;;4956511;28;20110;-35
2022/04/02 12:37:01;;;;;;;0.20;0.20;;;;;;;;;;4956319;28;20474;-34
2022/04/02 12:39:27;;;;;;;0.60;0.47;;;;;;;;;;4956690;28;20042;-34
2022/04/02 12:41:53;;;;;;;0.43;0.30;;;;;;;;;;4956158;29;20039;-35
2022/04/02 12:44:20;;;;;;;0.73;0.50;;;;;;;;;;4956606;28;20109;-35
2022/04/02 12:46:46;;;;;;;0.63;0.40;;;;;;;;;;4956169;28;20467;-35
2022/04/02 12:49:35;;;;;;;0.52;0.43;;;;;;;;;;4956429;28;20059;-35
2022/04/02 12:52:14;;;;;;;0.90;0.57;;;;;;;;;;4956026;28;20039;-35
2022/04/02 12:54:44;;;;;;;1.30;0.40;;;;;;;;;;4956160;28;20031;-34
2022/04/02 12:57:13;;;;;;;0.95;0.65;;;;;;;;;;4955933;28;20027;-35
2022/04/02 12:59:44;;;;;;;0.38;0.35;;;;;;;;;;4955557;28;20482;-34
2022/04/02 13:02:16;;;;;;;0.45;0.45;;;;;;;;;;4955956;28;20131;-35
2022/04/02 13:04:48;;;;;;;0.40;0.40;;;;;;;;;;4955869;28;20102;-35
2022/04/02 13:07:15;;;;;;;0.30;0.30;;;;;;;;;;4955740;28;20102;-35
2022/04/02 13:09:41;;;;;;;0.70;0.38;;;;;;;;;;4955930;28;20035;-35
2022/04/02 13:12:10;;;;;;;0.75;0.38;;;;;;;;;;4955823;28;20031;-35
2022/04/02 13:14:35;;;;;;;0.40;0.40;;;;;;;;;;4955875;28;20019;-35
2022/04/02 13:17:07;;;;;;;1.30;0.60;;;;;;;;;;4970438;28;20046;-35
2022/04/02 13:22:39;;;;;;;0.37;0.37;;;;;;;;;;4955766;28;20118;-35
2022/04/02 13:25:09;;;;;;;0.60;0.40;;;;;;;;;;4955736;28;20062;-35
2022/04/02 13:27:53;;;;;;;0.80;0.50;;;;;;;;;;4955459;28;20467;-35
2022/04/02 13:30:21;;;;;;;1.15;0.70;;;;;;;;;;4955736;28;20397;-35
2022/04/02 13:32:50;;;;;;;0.50;0.50;;;;;;;;;;4955446;28;20020;-35
2022/04/02 13:35:32;;;;;;;0.22;0.22;;;;;;;;;;4955341;28;20038;-35
2022/04/02 13:38:16;;;;;;;1.02;0.65;;;;;;;;;;4955286;28;20031;-35
2022/04/02 13:40:44;;;;;;;0.38;0.30;;;;;;;;;;4955797;28;20119;-35
2022/04/02 13:43:10;;;;;;;0.35;0.30;;;;;;;;;;4955145;29;20047;-35
2022/04/02 13:45:36;;;;;;;0.68;0.68;;;;;;;;;;4955424;28;20050;-35
2022/04/02 13:48:03;;;;;;;0.50;0.40;;;;;;;;;;4954977;28;20086;-35
2022/04/02 13:50:29;;;;;;;0.30;0.30;;;;;;;;;;4955420;28;20039;-35
2022/04/02 13:53:01;;;;;;;1.45;0.60;;;;;;;;;;4955033;28;20023;-35
2022/04/02 13:55:29;;;;;;;0.73;0.50;;;;;;;;;;4955009;28;20449;-35
2022/04/02 13:57:54;;;;;;;0.70;0.40;;;;;;;;;;4955243;28;20126;-35
2022/04/02 14:00:23;;;;;;;1.20;0.90;;;;;;;;;;4954921;28;20110;-34
2022/04/02 14:02:51;;;;;;;6.20;0.75;;;;;;;;;;4954899;28;20110;-35
2022/04/02 14:05:30;;;;;;;0.88;0.50;;;;;;;;;;4954709;28;20105;-35
2022/04/02 14:08:04;;;;;;;0.63;0.50;;;;;;;;;;4954949;28;20035;-35
2022/04/02 14:10:50;;;;;;;0.65;0.50;;;;;;;;;;4954765;28;20035;-35
2022/04/02 14:13:16;;;;;;;2.40;0.70;;;;;;;;;;4953730;28;20509;-34
2022/04/02 14:15:50;;;;;;;0.70;0.55;;;;;;;;;;4954609;28;20023;-35
2022/04/02 14:18:21;;;;;;;0.95;0.57;;;;;;;;;;4954493;28;20067;-35
2022/04/02 14:20:49;;;;;;;0.55;0.40;;;;;;;;;;4954597;28;20030;-35
2022/04/02 14:23:19;;;;;;;0.40;0.40;;;;;;;;;;4954474;28;20648;-35
2022/04/02 14:26:15;;;;;;;1.75;0.90;;;;;;;;;;4954343;28;20043;-35
2022/04/02 14:28:44;;;;;;;2.20;0.50;;;;;;;;;;4954467;29;20043;-34
2022/04/02 14:31:10;;;;;;;0.70;0.50;;;;;;;;;;4954283;28;20034;-35
2022/04/02 14:33:47;;;;;;;0.85;0.70;;;;;;;;;;4954255;28;20042;-35
2022/04/02 14:36:31;;;;;;;0.45;0.45;;;;;;;;;;4954147;28;20051;-35
2022/04/02 14:39:00;;;;;;;0.52;0.45;;;;;;;;;;4954109;28;20035;-35
2022/04/02 14:41:37;;;;;;;0.68;0.50;;;;;;;;;;4954100;29;20030;-35
2022/04/02 14:44:21;;;;;;;2.80;0.63;;;;;;;;;;4954052;28;20048;-35
2022/04/02 14:47:05;;;;;;;0.60;0.60;;;;;;;;;;4954249;28;20708;-34
2022/04/02 14:49:34;;;;;;;0.93;0.70;;;;;;;;;;4968980;28;20134;-35
2022/04/02 14:52:32;;;;;;;0.73;0.73;;;;;;;;;;4954161;28;20163;-35
2022/04/02 14:55:04;;;;;;;0.80;0.70;;;;;;;;;;4957433;28;20035;-34
2022/04/02 14:57:49;;;;;;;1.35;0.85;;;;;;;;;;4953918;28;20027;-35
2022/04/02 15:00:15;;;;;;;0.68;0.50;;;;;;;;;;4953784;28;20035;-35
2022/04/02 15:02:43;;;;;;;0.43;0.40;;;;;;;;;;4953834;28;20027;-35
2022/04/02 15:05:30;;;;;;;0.55;0.52;;;;;;;;;;4968497;28;20039;-35
2022/04/02 15:08:14;;;;;;;1.55;0.80;;;;;;;;;;4953741;28;20102;-35
2022/04/02 15:10:51;;;;;;;0.40;0.40;;;;;;;;;;4953779;28;20031;-35